Terminal Aerodrome Forecast
Issued by NWS Atlanta, GA

Home | Current Version | Previous Version | Text Only | Print | Product List | Glossary On
Versions: 1 2 3 4 5 6 7 8 9 10 11 12 13 14 15 16 17 18 19 20 21 22 23 24 25 26 27 28 29 30 31 32 33 34 35 36 37 38 39 40
000
FTUS42 KFFC 191955 AAA
TAFATL
TAF AMD
KATL 191955Z 1920/2024 17006KT P6SM FEW030 BKN100
     FM192300 14008KT P6SM SCT025 BKN100
     FM200000 14008KT P6SM BKN025 BKN100
     FM200200 15009KT P6SM -RA OVC015
     FM200600 20008KT 6SM -RA BR OVC007
     FM201000 22007KT 4SM BR OVC007
     FM201500 21008KT 6SM BR SCT007 BKN015
     FM201700 21007KT P6SM BKN025
     FM202000 22008KT P6SM OVC040=

USA.gov is the U.S. government's official web portal to all federal, state and local government web resources and services.